createdAt,value
2022-11-06T00:01:13.309Z,98800.97
2022-11-06T00:04:00.873Z,98808.34
2022-11-06T00:06:50.659Z,98799.59
2022-11-06T00:09:38.598Z,98801.63
2022-11-06T00:12:25.994Z,98800.13
2022-11-06T00:15:14.307Z,98800.25
2022-11-06T00:18:06.033Z,98797.13
2022-11-06T00:20:53.714Z,98800.94
2022-11-06T00:23:42.503Z,98806.53
2022-11-06T00:26:31.989Z,98798.09
2022-11-06T00:29:19.359Z,98800.13
2022-11-06T00:32:07.204Z,98802.22
2022-11-06T00:34:56.104Z,98797.28
2022-11-06T00:37:43.797Z,98790.53
2022-11-06T00:40:31.352Z,98795.38
2022-11-06T00:43:19.179Z,98791.28
2022-11-06T00:46:09.853Z,98791.59
2022-11-06T00:48:57.848Z,98790.25
2022-11-06T00:51:46.876Z,98791.41
2022-11-06T00:54:34.238Z,98787.38
2022-11-06T00:57:21.884Z,98798.13
2022-11-06T01:00:12.008Z,98802.88
2022-11-06T01:02:59.951Z,98791.81
2022-11-06T01:05:47.819Z,98791.28
2022-11-06T01:08:37.590Z,98795.06
2022-11-06T01:11:37.482Z,98797.19
2022-11-06T01:14:34.796Z,98804.53
2022-11-06T01:17:22.493Z,98801.28
2022-11-06T01:20:11.890Z,98796.31
2022-11-06T01:22:59.361Z,98799.97
2022-11-06T01:25:58.738Z,98797.69
2022-11-06T01:28:46.617Z,98803.13
2022-11-06T01:31:36.257Z,98802.50
2022-11-06T01:34:24.113Z,98803.53
2022-11-06T01:37:14.499Z,98807.19
2022-11-06T01:40:02.739Z,98810.88
2022-11-06T01:42:51.620Z,98809.19
2022-11-06T01:45:40.859Z,98810.38
2022-11-06T01:48:29.927Z,98800.97
2022-11-06T01:51:17.577Z,98801.16
2022-11-06T01:54:09.814Z,98796.09
2022-11-06T01:57:00.821Z,98801.59
2022-11-06T01:59:54.022Z,98788.47
2022-11-06T02:02:42.328Z,98793.16
2022-11-06T02:05:31.083Z,98794.09
2022-11-06T02:08:21.851Z,98796.84
2022-11-06T02:11:09.495Z,98784.72
2022-11-06T02:14:09.710Z,98780.72
2022-11-06T02:17:10.608Z,98780.72
2022-11-06T02:20:07.820Z,98779.84
2022-11-06T02:23:51.706Z,98766.94
2022-11-06T02:27:15.125Z,98777.66
2022-11-06T02:30:07.275Z,98781.97
2022-11-06T02:33:03.179Z,98787.31
2022-11-06T02:35:57.678Z,98781.22
2022-11-06T02:38:52.532Z,98787.97
2022-11-06T02:41:46.175Z,98776.72
2022-11-06T02:44:38.298Z,98768.06
2022-11-06T02:47:32.793Z,98766.59
2022-11-06T02:50:27.022Z,98756.94
2022-11-06T02:53:19.338Z,98757.75
2022-11-06T02:56:13.480Z,98757.03
2022-11-06T02:59:10.846Z,98759.00
2022-11-06T03:02:05.979Z,98755.63
2022-11-06T03:05:01.661Z,98755.34
2022-11-06T03:07:58.022Z,98751.69
2022-11-06T03:10:57.496Z,98763.97
2022-11-06T03:13:55.353Z,98752.72
2022-11-06T03:16:57.337Z,98760.88
2022-11-06T03:19:54.096Z,98758.25
2022-11-06T03:22:49.291Z,98763.41
2022-11-06T03:25:54.236Z,98751.22
2022-11-06T03:28:51.336Z,98752.72
2022-11-06T03:31:48.625Z,98749.16
2022-11-06T03:34:50.717Z,98745.56
2022-11-06T03:37:45.732Z,98741.91
2022-11-06T03:40:39.365Z,98743.50
2022-11-06T03:43:33.197Z,98730.38
2022-11-06T03:46:25.175Z,98737.41
2022-11-06T03:49:19.689Z,98738.25
2022-11-06T03:52:14.932Z,98722.28
2022-11-06T03:55:09.563Z,98716.28
2022-11-06T03:58:04.756Z,98721.53
2022-11-06T04:00:55.798Z,98719.00
2022-11-06T04:03:52.556Z,98720.97
2022-11-06T04:06:49.048Z,98721.94
2022-11-06T04:10:03.380Z,98719.31
2022-11-06T04:13:13.660Z,98721.94
2022-11-06T04:16:02.219Z,98726.25
2022-11-06T04:18:49.911Z,98732.53
2022-11-06T04:21:59.754Z,98724.75
2022-11-06T04:25:22.474Z,98723.91
2022-11-06T04:28:26.382Z,98730.78
2022-11-06T04:31:26.416Z,98726.44
2022-11-06T04:34:24.013Z,98733.41
2022-11-06T04:37:22.712Z,98729.81
2022-11-06T04:40:22.714Z,98725.41
2022-11-06T04:43:19.870Z,98734.88
2022-11-06T04:46:11.235Z,98729.41
2022-11-06T04:49:01.083Z,98729.22
2022-11-06T04:51:49.138Z,98721.66
2022-11-06T04:54:37.483Z,98727.56
2022-11-06T04:57:27.462Z,98721.16
2022-11-06T05:00:17.650Z,98722.09
2022-11-06T05:03:06.340Z,98718.63
2022-11-06T05:05:53.956Z,98708.41
2022-11-06T05:08:43.496Z,98707.59
2022-11-06T05:11:31.248Z,98710.13
2022-11-06T05:14:20.192Z,98712.66
2022-11-06T05:17:08.921Z,98709.81
2022-11-06T05:19:56.394Z,98700.03
2022-11-06T05:22:58.617Z,98694.56
2022-11-06T05:25:46.417Z,98691.84
2022-11-06T05:28:34.935Z,98689.97
2022-11-06T05:31:24.821Z,98669.75
2022-11-06T05:34:13.665Z,98666.41
2022-11-06T05:37:01.364Z,98671.88
2022-11-06T05:39:49.151Z,98674.91
2022-11-06T05:42:38.381Z,98664.41
2022-11-06T05:45:25.880Z,98669.56
2022-11-06T05:48:15.161Z,98667.78
2022-11-06T05:51:03.519Z,98665.97
2022-11-06T05:53:50.745Z,98665.16
2022-11-06T05:56:38.132Z,98665.25
2022-11-06T05:59:27.457Z,98665.56
2022-11-06T06:02:14.965Z,98660.31
2022-11-06T06:05:05.000Z,98655.03
2022-11-06T06:07:52.388Z,98648.94
2022-11-06T06:10:42.369Z,98662.19
2022-11-06T06:13:32.203Z,98661.03
2022-11-06T06:16:20.082Z,98661.78
2022-11-06T06:32:21.732Z,98678.16
2022-11-06T06:35:09.902Z,98687.19
2022-11-06T06:37:57.608Z,98689.72
2022-11-06T06:40:45.261Z,98691.88
2022-11-06T06:43:33.311Z,98697.25
2022-11-06T06:46:25.998Z,98702.00
2022-11-06T06:49:14.769Z,98716.41
2022-11-06T06:52:04.211Z,98731.53
2022-11-06T06:54:51.902Z,98734.06
2022-11-06T06:57:39.438Z,98742.28
2022-11-06T07:00:28.068Z,98751.28
2022-11-06T07:03:15.884Z,98733.72
2022-11-06T07:06:05.292Z,98731.34
2022-11-06T07:08:56.824Z,98730.09
2022-11-06T07:11:45.231Z,98731.16
2022-11-06T07:14:32.681Z,98722.75
2022-11-06T07:17:20.160Z,98711.75
2022-11-06T07:20:09.962Z,98712.25
2022-11-06T07:23:02.039Z,98710.16
2022-11-06T07:25:54.632Z,98703.94
2022-11-06T07:28:44.886Z,98705.56
2022-11-06T07:31:32.649Z,98703.84
2022-11-06T07:34:20.320Z,98703.19
2022-11-06T07:37:11.186Z,98708.88
2022-11-06T07:40:00.966Z,98708.78
2022-11-06T07:42:49.478Z,98711.19
2022-11-06T07:45:38.264Z,98705.69
2022-11-06T07:48:25.893Z,98709.72
2022-11-06T07:51:13.608Z,98702.28
2022-11-06T07:54:02.146Z,98692.06
2022-11-06T07:56:51.054Z,98680.81
2022-11-06T07:59:38.617Z,98688.50
2022-11-06T08:02:26.659Z,98687.13
2022-11-06T08:05:14.548Z,98678.63
2022-11-06T08:08:02.511Z,98681.75
2022-11-06T08:10:51.785Z,98682.63
2022-11-06T08:13:41.652Z,98683.97
2022-11-06T08:16:29.842Z,98677.16
2022-11-06T08:19:17.696Z,98660.91
2022-11-06T08:22:07.257Z,98659.94
2022-11-06T08:24:57.384Z,98657.75
2022-11-06T08:27:47.185Z,98648.72
2022-11-06T08:30:37.149Z,98649.41
2022-11-06T08:33:26.063Z,98639.38
2022-11-06T08:36:15.389Z,98649.31
2022-11-06T08:39:03.180Z,98651.56
2022-11-06T08:41:54.105Z,98637.72
2022-11-06T08:44:42.525Z,98628.84
2022-11-06T08:47:34.201Z,98630.78
2022-11-06T08:50:25.521Z,98635.75
2022-11-06T08:53:13.580Z,98619.56
2022-11-06T08:56:03.951Z,98622.09
2022-11-06T08:58:55.843Z,98622.44
2022-11-06T09:01:43.579Z,98623.78
2022-11-06T09:04:37.293Z,98621.09
2022-11-06T09:07:27.647Z,98605.38
2022-11-06T09:10:15.309Z,98599.41
2022-11-06T09:13:02.961Z,98591.41
2022-11-06T09:15:50.273Z,98601.94
2022-11-06T09:18:37.885Z,98587.69
2022-11-06T09:21:26.859Z,98576.38
2022-11-06T09:24:14.878Z,98578.16
2022-11-06T09:27:04.357Z,98557.66
2022-11-06T09:29:52.499Z,98549.31
2022-11-06T09:32:40.696Z,98545.22
2022-11-06T09:35:30.976Z,98549.03
2022-11-06T09:38:20.895Z,98545.34
2022-11-06T09:41:19.104Z,98546.78
2022-11-06T09:44:29.361Z,98551.94
2022-11-06T09:47:23.202Z,98542.13
2022-11-06T09:50:23.093Z,98535.88
2022-11-06T09:53:21.224Z,98539.72
2022-11-06T09:56:14.239Z,98546.88
2022-11-06T09:59:05.099Z,98536.53
2022-11-06T10:02:01.523Z,98528.81
2022-11-06T10:04:58.821Z,98525.78
2022-11-06T10:07:48.331Z,98518.41
2022-11-06T10:10:53.244Z,98514.59
2022-11-06T10:14:03.627Z,98516.31
2022-11-06T10:17:03.314Z,98518.66
2022-11-06T10:19:58.651Z,98519.75
2022-11-06T10:23:03.597Z,98509.00
2022-11-06T10:26:10.970Z,98511.03
2022-11-06T10:29:22.434Z,98505.47
2022-11-06T10:32:49.730Z,98491.84
2022-11-06T10:35:47.288Z,98490.66
2022-11-06T10:38:47.324Z,98481.94
2022-11-06T10:41:41.420Z,98479.28
2022-11-06T10:44:37.854Z,98478.00
2022-11-06T10:47:31.541Z,98481.91
2022-11-06T10:50:19.888Z,98466.00
2022-11-06T10:53:20.353Z,98460.06
2022-11-06T10:56:33.205Z,98462.13
2022-11-06T10:59:22.490Z,98463.56
2022-11-06T11:02:27.337Z,98470.00
2022-11-06T11:05:19.011Z,98472.38
2022-11-06T11:08:07.574Z,98464.03
2022-11-06T11:11:05.362Z,98459.22
2022-11-06T11:14:22.640Z,98465.75
2022-11-06T11:17:11.716Z,98466.06
2022-11-06T11:19:59.357Z,98450.06
2022-11-06T11:22:47.091Z,98444.38
2022-11-06T11:25:35.322Z,98436.72
2022-11-06T11:28:33.797Z,98429.84
2022-11-06T11:31:28.421Z,98423.56
2022-11-06T11:34:24.553Z,98413.56
2022-11-06T11:37:27.013Z,98402.44
2022-11-06T11:40:36.655Z,98403.59
2022-11-06T11:43:27.668Z,98405.00
2022-11-06T11:46:22.265Z,98398.06
2022-11-06T11:49:32.146Z,98407.38
2022-11-06T11:52:23.399Z,98401.63
2022-11-06T11:55:17.633Z,98397.47
2022-11-06T11:58:05.999Z,98383.53
2022-11-06T12:00:57.744Z,98385.22
2022-11-06T12:03:53.726Z,98382.97
2022-11-06T12:06:58.681Z,98373.78
2022-11-06T12:09:47.034Z,98371.28
2022-11-06T12:12:37.438Z,98357.75
2022-11-06T12:15:31.223Z,98353.47
2022-11-06T12:18:24.472Z,98338.69
2022-11-06T12:21:27.809Z,98334.63
2022-11-06T12:24:21.860Z,98335.59
2022-11-06T12:27:25.712Z,98325.31
2022-11-06T12:30:17.762Z,98333.53
2022-11-06T12:33:15.679Z,98326.19
2022-11-06T12:36:09.379Z,98325.31
2022-11-06T12:39:07.126Z,98311.94
2022-11-06T12:41:58.026Z,98308.19
2022-11-06T12:44:49.073Z,98298.25
2022-11-06T12:47:51.869Z,98290.50
2022-11-06T12:50:49.931Z,98282.22
2022-11-06T12:53:57.349Z,98275.03
2022-11-06T12:57:07.763Z,98262.88
2022-11-06T13:00:11.597Z,98257.16
2022-11-06T13:03:23.433Z,98247.50
2022-11-06T13:06:19.361Z,98228.53
2022-11-06T13:09:22.368Z,98233.25
2022-11-06T13:12:24.302Z,98234.34
2022-11-06T13:15:28.160Z,98229.91
2022-11-06T13:18:24.692Z,98221.53
2022-11-06T13:21:21.385Z,98217.72
2022-11-06T13:24:19.505Z,98209.25
2022-11-06T13:27:19.325Z,98200.31
2022-11-06T13:30:17.012Z,98191.34
2022-11-06T13:33:18.351Z,98190.22
2022-11-06T13:36:07.791Z,98187.97
2022-11-06T13:39:04.006Z,98178.03
2022-11-06T13:41:54.741Z,98174.59
2022-11-06T13:44:44.111Z,98180.63
2022-11-06T13:47:42.294Z,98174.97
2022-11-06T13:50:40.916Z,98162.88
2022-11-06T13:53:42.360Z,98156.41
2022-11-06T13:57:33.874Z,98136.97
2022-11-06T14:00:25.374Z,98139.66
2022-11-06T14:03:54.956Z,98127.31
2022-11-06T14:06:44.457Z,98128.97
2022-11-06T14:09:36.716Z,98129.25
2022-11-06T14:12:24.934Z,98133.63
2022-11-06T14:15:29.287Z,98143.28
2022-11-06T14:18:24.845Z,98144.56
2022-11-06T14:21:48.062Z,98144.19
2022-11-06T14:24:36.033Z,98141.84
2022-11-06T14:28:07.428Z,98129.97
2022-11-06T14:31:14.213Z,98122.56
2022-11-06T14:34:03.614Z,98114.78
2022-11-06T14:36:50.863Z,98115.50
2022-11-06T14:40:05.505Z,98105.47
2022-11-06T14:42:53.156Z,98112.19
2022-11-06T14:45:52.638Z,98110.97
2022-11-06T14:48:48.132Z,98107.19
2022-11-06T14:51:36.243Z,98115.78
2022-11-06T14:54:25.833Z,98121.06
2022-11-06T14:57:19.709Z,98125.38
2022-11-06T15:00:13.882Z,98123.31
2022-11-06T15:03:02.319Z,98115.13
2022-11-06T15:05:52.836Z,98125.16
2022-11-06T15:09:02.783Z,98132.84
2022-11-06T15:12:02.656Z,98131.44
2022-11-06T15:15:16.308Z,98126.94
2022-11-06T15:18:06.738Z,98137.75
2022-11-06T15:21:00.552Z,98140.53
2022-11-06T15:24:04.662Z,98133.16
2022-11-06T15:26:58.650Z,98132.91
2022-11-06T15:29:53.004Z,98129.66
2022-11-06T15:32:45.768Z,98130.47
2022-11-06T15:35:36.842Z,98130.47
2022-11-06T15:38:38.888Z,98122.44
2022-11-06T15:41:28.113Z,98109.13
2022-11-06T15:44:20.827Z,98099.41
2022-11-06T15:47:22.429Z,98093.56
2022-11-06T15:50:17.897Z,98095.28
2022-11-06T15:53:22.247Z,98095.75
2022-11-06T15:56:15.808Z,98095.31
2022-11-06T15:59:14.006Z,98094.50
2022-11-06T16:02:13.500Z,98107.03
2022-11-06T16:05:01.549Z,98104.78
2022-11-06T16:07:50.077Z,98103.69
2022-11-06T16:10:39.982Z,98112.44
2022-11-06T16:13:31.603Z,98109.91
2022-11-06T16:16:42.781Z,98100.91
2022-11-06T16:19:38.601Z,98096.16
2022-11-06T16:22:34.448Z,98096.44
2022-11-06T16:25:22.581Z,98091.72
2022-11-06T16:28:20.017Z,98089.53
2022-11-06T16:31:16.059Z,98089.25
2022-11-06T16:34:07.586Z,98086.16
2022-11-06T16:37:01.773Z,98087.44
2022-11-06T16:39:52.892Z,98095.91
2022-11-06T16:42:40.699Z,98105.81
2022-11-06T16:45:28.613Z,98112.31
2022-11-06T16:48:32.272Z,98105.91
2022-11-06T16:51:33.895Z,98105.50
2022-11-06T16:54:28.676Z,98106.72
2022-11-06T16:57:20.328Z,98107.28
2022-11-06T17:00:24.620Z,98105.88
2022-11-06T17:03:22.414Z,98097.28
2022-11-06T17:06:23.519Z,98083.66
2022-11-06T17:09:31.050Z,98075.41
2022-11-06T17:12:18.863Z,98086.28
2022-11-06T17:15:07.868Z,98091.13
2022-11-06T17:17:55.404Z,98090.53
2022-11-06T17:20:52.057Z,98096.22
2022-11-06T17:23:41.627Z,98092.19
2022-11-06T17:26:32.157Z,98098.72
2022-11-06T17:29:22.364Z,98100.78
2022-11-06T17:32:10.029Z,98101.06
2022-11-06T17:34:57.574Z,98104.66
2022-11-06T17:37:45.179Z,98110.22
2022-11-06T17:40:34.018Z,98115.50
2022-11-06T17:43:21.480Z,98112.16
2022-11-06T17:46:14.182Z,98101.88
2022-11-06T17:49:03.418Z,98096.88
2022-11-06T17:52:01.574Z,98104.06
2022-11-06T17:54:49.468Z,98112.13
2022-11-06T17:57:41.765Z,98105.31
2022-11-06T18:00:33.963Z,98115.16
2022-11-06T18:03:23.787Z,98106.69
2022-11-06T18:06:12.080Z,98102.34
2022-11-06T18:09:01.609Z,98113.75
2022-11-06T18:11:50.964Z,98108.59
2022-11-06T18:14:39.896Z,98115.00
2022-11-06T18:17:27.671Z,98113.31
2022-11-06T18:20:15.318Z,98083.72
2022-11-06T18:23:04.437Z,98081.22
2022-11-06T18:25:59.881Z,98073.44
2022-11-06T18:29:11.395Z,98076.78
2022-11-06T18:31:58.988Z,98083.16
2022-11-06T18:34:48.261Z,98078.13
2022-11-06T18:37:35.940Z,98087.28
2022-11-06T18:40:23.561Z,98082.56
2022-11-06T18:43:11.959Z,98084.38
2022-11-06T18:45:59.595Z,98081.03
2022-11-06T18:48:48.716Z,98073.00
2022-11-06T18:51:36.739Z,98064.28
2022-11-06T18:54:24.474Z,98079.25
2022-11-06T18:57:15.444Z,98076.75
2022-11-06T19:00:03.154Z,98064.50
2022-11-06T19:02:51.558Z,98051.31
2022-11-06T19:05:46.873Z,98047.97
2022-11-06T19:08:35.438Z,98051.44
2022-11-06T19:11:23.507Z,98038.38
2022-11-06T19:14:12.837Z,98053.22
2022-11-06T19:17:00.556Z,98052.25
2022-11-06T19:19:48.584Z,98066.41
2022-11-06T19:22:37.603Z,98072.53
2022-11-06T19:25:25.657Z,98079.59
2022-11-06T19:28:13.637Z,98092.78
2022-11-06T19:31:01.727Z,98096.16
2022-11-06T19:33:49.379Z,98101.31
2022-11-06T19:36:37.485Z,98104.50
2022-11-06T19:39:26.544Z,98102.59
2022-11-06T19:42:14.254Z,98094.41
2022-11-06T19:45:08.757Z,98097.72
2022-11-06T19:47:56.464Z,98109.84
2022-11-06T19:50:59.415Z,98116.66
2022-11-06T19:53:48.021Z,98102.06
2022-11-06T19:57:29.664Z,98104.31
2022-11-06T19:59:46.415Z,98101.97
2022-11-06T20:02:35.557Z,98108.47
2022-11-06T20:05:25.470Z,98096.69
2022-11-06T20:08:13.438Z,98102.41
2022-11-06T20:11:04.247Z,98108.25
2022-11-06T20:13:53.122Z,98113.38
2022-11-06T20:16:41.992Z,98127.28
2022-11-06T20:19:29.505Z,98125.75
2022-11-06T20:22:17.065Z,98122.16
2022-11-06T20:25:04.604Z,98097.41
2022-11-06T20:27:52.344Z,98097.41
2022-11-06T20:30:41.276Z,98107.56
2022-11-06T20:33:30.108Z,98109.25
2022-11-06T20:36:23.018Z,98102.16
2022-11-06T20:39:10.887Z,98104.94
2022-11-06T20:41:59.000Z,98099.41
2022-11-06T20:44:46.615Z,98094.81
2022-11-06T20:47:38.349Z,98091.22
2022-11-06T20:50:30.089Z,98091.91
2022-11-06T20:53:19.732Z,98100.53
2022-11-06T20:56:11.299Z,98114.44
2022-11-06T20:58:59.117Z,98122.22
2022-11-06T21:01:47.376Z,98145.84
2022-11-06T21:04:40.103Z,98137.47
2022-11-06T21:07:27.635Z,98144.19
2022-11-06T21:10:15.087Z,98139.16
2022-11-06T21:13:02.442Z,98146.09
2022-11-06T21:15:49.857Z,98144.84
2022-11-06T21:18:38.975Z,98141.69
2022-11-06T21:21:32.846Z,98140.97
2022-11-06T21:24:20.889Z,98143.09
2022-11-06T21:27:09.623Z,98153.38
2022-11-06T21:29:58.317Z,98160.63
2022-11-06T21:32:45.991Z,98149.22
2022-11-06T21:35:33.687Z,98153.97
2022-11-06T21:38:22.498Z,98154.81
2022-11-06T21:41:13.204Z,98154.34
2022-11-06T21:44:01.299Z,98161.44
2022-11-06T21:46:49.641Z,98157.72
2022-11-06T21:49:37.145Z,98153.09
2022-11-06T21:52:42.284Z,98155.06
2022-11-06T21:55:53.610Z,98162.00
2022-11-06T21:58:41.233Z,98148.09
2022-11-06T22:01:29.420Z,98152.69
2022-11-06T22:04:17.190Z,98150.31
2022-11-06T22:07:04.897Z,98162.41
2022-11-06T22:09:53.524Z,98161.69
2022-11-06T22:12:42.453Z,98161.97
2022-11-06T22:15:30.093Z,98164.59
2022-11-06T22:18:17.657Z,98164.19
2022-11-06T22:21:10.086Z,98153.63
2022-11-06T22:23:58.808Z,98165.06
2022-11-06T22:26:46.708Z,98176.19
2022-11-06T22:29:35.517Z,98170.66
2022-11-06T22:32:23.116Z,98162.72
2022-11-06T22:35:11.185Z,98174.94
2022-11-06T22:37:58.730Z,98168.69
2022-11-06T22:40:53.867Z,98179.50
2022-11-06T22:43:42.857Z,98188.16
2022-11-06T22:46:32.573Z,98180.38
2022-11-06T22:49:20.217Z,98183.13
2022-11-06T22:52:07.950Z,98183.41
2022-11-06T22:54:55.539Z,98186.44
2022-11-06T22:57:43.028Z,98186.16
2022-11-06T23:00:30.470Z,98192.56
2022-11-06T23:03:19.627Z,98197.38
2022-11-06T23:06:13.384Z,98196.00
2022-11-06T23:09:02.294Z,98202.25
2022-11-06T23:11:50.099Z,98207.78
2022-11-06T23:14:37.563Z,98198.31
2022-11-06T23:17:25.106Z,98202.91
2022-11-06T23:20:19.003Z,98193.56
2022-11-06T23:23:08.133Z,98196.47
2022-11-06T23:25:55.911Z,98194.94
2022-11-06T23:28:44.651Z,98202.41
2022-11-06T23:31:32.445Z,98200.16
2022-11-06T23:34:21.462Z,98201.38
2022-11-06T23:37:10.112Z,98197.06
2022-11-06T23:39:57.862Z,98205.13
2022-11-06T23:42:45.120Z,98206.22
2022-11-06T23:45:49.913Z,98210.66
2022-11-06T23:48:37.620Z,98213.03
2022-11-06T23:51:27.772Z,98205.75
2022-11-06T23:54:17.285Z,98213.41
2022-11-06T23:57:05.148Z,98226.91
2022-11-06T23:59:53.600Z,98224.09
